createdAt,value
2022-09-18T00:04:26.008Z,11.81
2022-09-18T00:14:54.851Z,11.85
2022-09-18T00:25:24.207Z,11.81
2022-09-18T00:36:31.358Z,11.79
2022-09-18T00:47:44.439Z,11.79
2022-09-18T00:58:18.395Z,11.81
2022-09-18T01:09:00.433Z,11.83
2022-09-18T01:19:26.615Z,11.87
2022-09-18T01:30:12.406Z,11.84
2022-09-18T01:40:45.601Z,11.82
2022-09-18T01:51:14.527Z,11.78
2022-09-18T02:01:20.953Z,11.71
2022-09-18T02:11:47.905Z,11.66
2022-09-18T02:22:21.328Z,11.65
2022-09-18T02:32:38.250Z,11.67
2022-09-18T02:43:18.429Z,11.68
2022-09-18T02:53:41.588Z,11.67
2022-09-18T03:03:52.919Z,11.64
2022-09-18T03:14:28.680Z,11.64
2022-09-18T03:24:47.901Z,11.62
2022-09-18T03:35:12.040Z,11.62
2022-09-18T03:45:48.538Z,11.61
2022-09-18T03:56:19.833Z,11.69
2022-09-18T04:07:01.819Z,11.78
2022-09-18T04:17:36.990Z,11.81
2022-09-18T04:28:34.000Z,11.82
2022-09-18T04:39:13.713Z,11.80
2022-09-18T04:50:11.428Z,11.82
2022-09-18T05:00:53.869Z,11.83
2022-09-18T05:11:59.509Z,11.85
2022-09-18T05:22:55.594Z,11.88
2022-09-18T05:33:12.183Z,11.91
2022-09-18T05:43:55.819Z,11.88
2022-09-18T05:54:38.777Z,11.88
2022-09-18T06:05:28.520Z,11.78
2022-09-18T06:15:59.523Z,11.67
2022-09-18T06:26:31.421Z,11.60
2022-09-18T06:37:24.129Z,11.54
2022-09-18T06:48:32.186Z,11.57
2022-09-18T06:59:00.743Z,11.54
2022-09-18T07:09:21.123Z,11.51
2022-09-18T07:19:37.345Z,11.44
2022-09-18T07:30:15.454Z,11.48
2022-09-18T07:40:22.566Z,11.60
2022-09-18T07:51:48.191Z,11.53
2022-09-18T08:02:41.104Z,11.47
2022-09-18T08:12:48.437Z,11.28
2022-09-18T08:23:38.074Z,11.21
2022-09-18T08:34:08.277Z,11.22
2022-09-18T08:45:14.794Z,11.32
2022-09-18T08:56:22.053Z,11.51
2022-09-18T09:07:53.079Z,11.70
2022-09-18T09:18:45.452Z,12.01
2022-09-18T09:29:15.922Z,12.32
2022-09-18T09:40:08.074Z,12.65
2022-09-18T09:51:22.037Z,13.10
2022-09-18T10:01:46.492Z,13.43
2022-09-18T10:12:23.197Z,13.59
2022-09-18T10:22:39.216Z,13.72
2022-09-18T10:32:53.327Z,13.83
2022-09-18T10:43:19.366Z,13.75
2022-09-18T10:53:32.597Z,13.66
2022-09-18T11:04:12.008Z,13.73
2022-09-18T11:14:27.502Z,13.81
2022-09-18T11:24:53.666Z,14.01
2022-09-18T11:35:18.505Z,14.07
2022-09-18T11:45:53.130Z,14.36
2022-09-18T11:56:41.028Z,14.60
2022-09-18T12:07:39.219Z,14.62
2022-09-18T12:17:57.129Z,14.54
2022-09-18T12:28:58.908Z,14.49
2022-09-18T12:39:39.405Z,14.52
2022-09-18T12:50:17.407Z,14.46
2022-09-18T13:00:50.585Z,14.26
2022-09-18T13:11:01.959Z,14.27
2022-09-18T13:21:10.477Z,14.22
2022-09-18T13:31:37.865Z,14.04
2022-09-18T13:41:48.446Z,13.89
2022-09-18T13:52:29.735Z,13.83
2022-09-18T14:03:14.221Z,13.65
2022-09-18T14:13:29.299Z,13.62
2022-09-18T14:24:02.963Z,13.61
2022-09-18T14:34:40.348Z,13.60
2022-09-18T14:45:28.109Z,13.39
2022-09-18T14:56:08.039Z,13.24
2022-09-18T15:06:17.536Z,13.21
2022-09-18T15:16:32.953Z,13.25
2022-09-18T15:26:44.722Z,13.30
2022-09-18T15:37:05.640Z,13.31
2022-09-18T15:48:07.401Z,13.38
2022-09-18T15:58:56.690Z,13.43
2022-09-18T16:10:16.815Z,13.43
2022-09-18T16:21:05.262Z,13.46
2022-09-18T16:31:48.691Z,13.43
2022-09-18T16:42:39.509Z,13.48
2022-09-18T16:52:48.238Z,13.53
2022-09-18T17:03:00.641Z,13.47
2022-09-18T17:13:16.688Z,13.46
2022-09-18T17:23:36.898Z,13.36
2022-09-18T17:33:48.009Z,13.28
2022-09-18T17:44:28.698Z,13.18
2022-09-18T17:54:57.417Z,13.06
2022-09-18T18:06:11.459Z,12.90
2022-09-18T18:16:41.491Z,12.74
2022-09-18T18:27:01.227Z,12.61
2022-09-18T18:37:25.003Z,12.51
2022-09-18T18:47:34.095Z,12.46
2022-09-18T18:57:42.880Z,12.40
2022-09-18T19:08:09.520Z,12.37
2022-09-18T19:18:36.608Z,12.38
2022-09-18T19:28:45.846Z,12.40
2022-09-18T19:39:13.233Z,12.37
2022-09-18T19:49:40.236Z,12.22
2022-09-18T20:00:13.239Z,12.10
2022-09-18T20:10:39.941Z,12.05
2022-09-18T20:21:29.474Z,12.03
2022-09-18T20:32:02.923Z,12.01
2022-09-18T20:43:03.280Z,12.01
2022-09-18T20:53:43.372Z,12.03
2022-09-18T21:04:18.456Z,12.00
2022-09-18T21:14:54.701Z,12.01
2022-09-18T21:25:14.754Z,12.09
2022-09-18T21:35:43.786Z,12.05
2022-09-18T21:45:58.380Z,11.96
2022-09-18T21:56:32.837Z,11.90
2022-09-18T22:07:02.711Z,11.91
2022-09-18T22:17:19.762Z,11.89
2022-09-18T22:27:29.439Z,11.79
2022-09-18T22:37:35.291Z,11.70
2022-09-18T22:47:41.759Z,11.58
2022-09-18T22:58:36.228Z,11.46
2022-09-18T23:09:06.831Z,11.30
2022-09-18T23:19:36.269Z,11.18
2022-09-18T23:29:51.325Z,11.05
2022-09-18T23:40:01.059Z,10.96
2022-09-18T23:50:30.861Z,10.83
